createdAt,value
2022-09-23T00:02:48.190Z,11.10
2022-09-23T00:05:38.556Z,9.30
2022-09-23T00:08:28.543Z,9.10
2022-09-23T00:11:20.220Z,9.20
2022-09-23T00:14:10.872Z,10.20
2022-09-23T00:17:00.938Z,9.60
2022-09-23T00:19:50.999Z,10.00
2022-09-23T00:22:40.903Z,9.20
2022-09-23T00:25:30.817Z,10.00
2022-09-23T00:28:20.961Z,8.90
2022-09-23T00:31:12.486Z,8.90
2022-09-23T00:34:02.629Z,10.00
2022-09-23T00:36:52.538Z,9.00
2022-09-23T00:39:45.205Z,9.40
2022-09-23T00:42:35.102Z,9.20
2022-09-23T00:45:25.465Z,9.20
2022-09-23T00:48:17.549Z,9.40
2022-09-23T00:51:09.353Z,9.20
2022-09-23T00:53:59.275Z,9.20
2022-09-23T00:56:49.262Z,8.70
2022-09-23T00:59:39.141Z,9.40
2022-09-23T01:02:29.094Z,9.30
2022-09-23T01:05:19.401Z,8.50
2022-09-23T01:08:10.515Z,9.10
2022-09-23T01:11:09.727Z,9.50
2022-09-23T01:14:09.599Z,8.90
2022-09-23T01:17:03.269Z,9.40
2022-09-23T01:20:24.328Z,8.20
2022-09-23T01:23:28.439Z,8.80
2022-09-23T01:26:43.301Z,8.90
2022-09-23T01:30:10.472Z,9.20
2022-09-23T01:33:05.084Z,9.00
2022-09-23T01:36:09.804Z,9.00
2022-09-23T01:39:03.107Z,8.60
2022-09-23T01:41:59.288Z,8.40
2022-09-23T01:44:53.115Z,9.20
2022-09-23T01:47:47.770Z,9.30
2022-09-23T01:50:56.810Z,8.30
2022-09-23T01:53:49.256Z,8.60
2022-09-23T01:56:42.397Z,9.90
2022-09-23T01:59:35.132Z,9.10
2022-09-23T02:02:28.399Z,9.00
2022-09-23T02:05:20.951Z,9.50
2022-09-23T02:08:13.228Z,9.20
2022-09-23T02:11:05.898Z,10.70
2022-09-23T02:13:57.939Z,9.40
2022-09-23T02:16:49.050Z,9.60
2022-09-23T02:19:43.646Z,9.90
2022-09-23T02:22:38.494Z,9.90
2022-09-23T02:25:39.373Z,10.10
2022-09-23T02:28:32.579Z,9.60
2022-09-23T02:31:30.260Z,10.70
2022-09-23T02:34:28.440Z,9.50
2022-09-23T02:37:25.645Z,10.10
2022-09-23T02:40:21.989Z,10.30
2022-09-23T02:43:14.795Z,9.50
2022-09-23T02:46:05.813Z,9.80
2022-09-23T02:49:00.407Z,10.60
2022-09-23T02:51:50.432Z,9.60
2022-09-23T02:54:40.440Z,10.40
2022-09-23T02:57:30.280Z,10.30
2022-09-23T03:00:20.446Z,10.20
2022-09-23T03:03:23.066Z,11.70
2022-09-23T03:06:24.064Z,10.80
2022-09-23T03:09:18.197Z,11.50
2022-09-23T03:12:13.692Z,11.10
2022-09-23T03:15:14.857Z,11.30
2022-09-23T03:18:12.668Z,10.90
2022-09-23T03:21:05.704Z,11.20
2022-09-23T03:23:56.567Z,12.90
2022-09-23T03:26:47.261Z,12.10
2022-09-23T03:29:37.137Z,12.40
2022-09-23T03:32:28.400Z,11.90
2022-09-23T03:35:18.709Z,11.90
2022-09-23T03:38:16.795Z,10.60
2022-09-23T03:41:06.672Z,11.50
2022-09-23T03:43:58.924Z,11.70
2022-09-23T03:46:49.405Z,10.90
2022-09-23T03:49:39.439Z,10.90
2022-09-23T03:52:29.781Z,10.70
2022-09-23T03:55:20.705Z,11.30
2022-09-23T03:58:10.981Z,11.90
2022-09-23T04:01:01.358Z,12.40
2022-09-23T04:03:52.393Z,11.40
2022-09-23T04:06:42.684Z,12.00
2022-09-23T04:09:32.986Z,12.10
2022-09-23T04:12:23.220Z,12.40
2022-09-23T04:15:13.667Z,12.30
2022-09-23T04:18:04.296Z,12.20
2022-09-23T04:20:58.900Z,12.10
2022-09-23T04:23:49.235Z,12.30
2022-09-23T04:26:39.540Z,13.60
2022-09-23T04:29:29.931Z,12.10
2022-09-23T04:32:20.292Z,12.00
2022-09-23T04:35:10.831Z,12.40
2022-09-23T04:38:01.501Z,12.30
2022-09-23T04:40:52.057Z,12.10
2022-09-23T04:43:42.445Z,13.00
2022-09-23T04:46:33.009Z,11.50
2022-09-23T04:49:23.416Z,11.90
2022-09-23T04:52:13.686Z,12.50
2022-09-23T04:55:09.128Z,12.60
2022-09-23T04:58:01.360Z,12.30
2022-09-23T05:00:51.705Z,13.10
2022-09-23T05:03:42.293Z,13.20
2022-09-23T05:06:33.931Z,12.50
2022-09-23T05:09:24.501Z,11.70
2022-09-23T05:12:14.775Z,12.00
2022-09-23T05:15:06.451Z,13.10
2022-09-23T05:17:59.956Z,12.80
2022-09-23T05:20:55.377Z,12.10
2022-09-23T05:23:49.296Z,12.70
2022-09-23T05:26:39.938Z,12.30
2022-09-23T05:29:30.696Z,12.10
2022-09-23T05:32:21.274Z,11.70
2022-09-23T05:35:12.057Z,12.60
2022-09-23T05:38:02.337Z,11.90
2022-09-23T05:40:58.048Z,11.90
2022-09-23T05:43:48.324Z,12.90
2022-09-23T05:46:39.004Z,12.10
2022-09-23T05:49:48.622Z,12.10
2022-09-23T05:52:40.755Z,12.20
2022-09-23T05:55:31.094Z,12.40
2022-09-23T05:58:23.036Z,12.20
2022-09-23T06:01:14.762Z,12.40
2022-09-23T06:04:06.917Z,11.90
2022-09-23T06:07:02.802Z,13.10
2022-09-23T06:10:14.988Z,11.60
2022-09-23T06:13:05.713Z,12.50
2022-09-23T06:16:00.076Z,11.40
2022-09-23T06:18:50.415Z,12.00
2022-09-23T06:21:41.683Z,13.80
2022-09-23T06:24:31.967Z,14.00
2022-09-23T06:27:22.348Z,14.90
2022-09-23T06:30:16.497Z,15.30
2022-09-23T06:33:06.945Z,14.40
2022-09-23T06:35:59.961Z,14.60
2022-09-23T06:38:52.714Z,13.80
2022-09-23T06:41:43.735Z,13.00
2022-09-23T06:44:37.949Z,15.70
2022-09-23T06:47:29.448Z,13.50
2022-09-23T06:50:20.112Z,13.90
2022-09-23T06:53:10.690Z,15.50
2022-09-23T06:56:02.162Z,14.80
2022-09-23T06:58:56.308Z,22.40
2022-09-23T07:01:47.782Z,23.80
2022-09-23T07:04:38.362Z,25.70
2022-09-23T07:07:32.316Z,23.00
2022-09-23T07:10:22.719Z,22.00
2022-09-23T07:13:16.238Z,21.40
2022-09-23T07:16:07.931Z,20.50
2022-09-23T07:18:59.318Z,18.50
2022-09-23T07:21:50.080Z,18.60
2022-09-23T07:24:40.790Z,18.20
2022-09-23T07:27:31.241Z,17.60
2022-09-23T07:30:25.771Z,18.00
2022-09-23T07:33:28.092Z,16.70
2022-09-23T07:36:21.739Z,16.90
2022-09-23T07:39:13.212Z,16.90
2022-09-23T07:42:06.738Z,15.50
2022-09-23T07:44:57.248Z,15.00
2022-09-23T07:47:48.467Z,15.40
2022-09-23T07:50:40.642Z,13.80
2022-09-23T07:53:31.247Z,15.60
2022-09-23T07:56:27.710Z,14.90
2022-09-23T07:59:19.438Z,14.70
2022-09-23T08:02:14.783Z,14.70
2022-09-23T08:05:06.391Z,14.20
2022-09-23T08:07:57.151Z,16.50
2022-09-23T08:10:47.929Z,14.20
2022-09-23T08:13:38.240Z,14.30
2022-09-23T08:16:28.851Z,13.60
2022-09-23T08:19:19.213Z,14.30
2022-09-23T08:22:09.589Z,13.50
2022-09-23T08:25:00.237Z,13.20
2022-09-23T08:27:51.995Z,13.00
2022-09-23T08:30:42.368Z,14.60
2022-09-23T08:33:32.770Z,13.80
2022-09-23T08:36:23.028Z,13.80
2022-09-23T08:39:16.865Z,12.60
2022-09-23T08:42:16.785Z,13.60
2022-09-23T08:45:12.455Z,15.40
2022-09-23T08:48:09.533Z,13.80
2022-09-23T08:51:06.377Z,12.90
2022-09-23T08:53:56.717Z,14.70
2022-09-23T08:56:49.025Z,11.90
2022-09-23T08:59:41.792Z,11.40
2022-09-23T09:02:34.309Z,11.40
2022-09-23T09:05:27.174Z,9.10
2022-09-23T09:08:18.713Z,9.10
2022-09-23T09:11:11.523Z,9.50
2022-09-23T09:14:10.724Z,9.40
2022-09-23T09:17:03.537Z,8.20
2022-09-23T09:19:58.830Z,8.80
2022-09-23T09:22:54.360Z,7.20
2022-09-23T09:25:46.354Z,7.70
2022-09-23T09:28:40.591Z,6.20
2022-09-23T09:31:35.518Z,6.90
2022-09-23T09:34:30.905Z,6.10
2022-09-23T09:37:25.115Z,6.10
2022-09-23T09:40:16.550Z,5.20
2022-09-23T09:43:06.895Z,5.90
2022-09-23T09:46:07.725Z,5.40
2022-09-23T09:49:00.577Z,4.30
2022-09-23T09:51:54.773Z,5.20
2022-09-23T09:54:45.052Z,4.80
2022-09-23T09:57:43.529Z,4.80
2022-09-23T10:00:42.781Z,4.60
2022-09-23T10:03:38.869Z,4.40
2022-09-23T10:06:31.837Z,4.70
2022-09-23T10:09:36.118Z,4.80
2022-09-23T10:12:26.763Z,5.20
2022-09-23T10:15:30.718Z,4.10
2022-09-23T10:18:23.100Z,4.30
2022-09-23T10:21:14.305Z,4.40
2022-09-23T10:24:06.970Z,6.60
2022-09-23T10:27:00.729Z,6.00
2022-09-23T10:29:52.080Z,5.70
2022-09-23T10:32:45.657Z,4.80
2022-09-23T10:35:36.198Z,4.70
2022-09-23T10:38:26.530Z,4.30
2022-09-23T10:41:44.807Z,4.60
2022-09-23T10:44:57.760Z,4.50
2022-09-23T10:47:54.371Z,5.70
2022-09-23T10:50:48.107Z,6.30
2022-09-23T10:53:42.970Z,7.60
2022-09-23T10:56:36.930Z,5.80
2022-09-23T10:59:56.828Z,6.00
2022-09-23T11:03:12.369Z,6.00
2022-09-23T11:06:13.068Z,5.30
2022-09-23T11:09:27.546Z,5.00
2022-09-23T11:12:25.732Z,5.90
2022-09-23T11:15:26.597Z,4.70
2022-09-23T11:18:51.074Z,5.70
2022-09-23T11:21:56.529Z,5.60
2022-09-23T11:25:16.647Z,7.80
2022-09-23T11:28:25.562Z,7.10
2022-09-23T11:31:25.967Z,7.70
2022-09-23T11:34:40.349Z,6.60
2022-09-23T11:37:33.267Z,8.40
2022-09-23T11:40:28.147Z,8.50
2022-09-23T11:43:22.790Z,7.30
2022-09-23T11:46:18.469Z,6.80
2022-09-23T11:49:14.913Z,8.40
2022-09-23T11:52:08.647Z,8.60
2022-09-23T11:55:03.442Z,5.70
2022-09-23T11:58:01.573Z,9.40
2022-09-23T12:01:00.849Z,7.50
2022-09-23T12:03:55.642Z,6.60
2022-09-23T12:06:48.129Z,7.10
2022-09-23T12:09:57.783Z,7.80
2022-09-23T12:12:56.899Z,6.40
2022-09-23T12:15:58.497Z,7.40
2022-09-23T12:18:58.588Z,8.20
2022-09-23T12:21:59.793Z,7.90
2022-09-23T12:24:56.660Z,6.60
2022-09-23T12:27:49.684Z,6.60
2022-09-23T12:30:39.991Z,7.10
2022-09-23T12:33:31.865Z,5.40
2022-09-23T12:36:29.823Z,6.50
2022-09-23T12:39:26.387Z,6.10
2022-09-23T12:42:18.384Z,5.90
2022-09-23T12:45:37.982Z,5.90
2022-09-23T12:48:46.107Z,6.10
2022-09-23T12:51:36.969Z,6.80
2022-09-23T12:54:27.316Z,7.20
2022-09-23T12:57:40.180Z,6.40
2022-09-23T13:00:34.204Z,6.80
2022-09-23T13:03:43.167Z,6.70
2022-09-23T13:06:42.914Z,5.90
2022-09-23T13:09:39.337Z,8.20
2022-09-23T13:12:32.312Z,5.70
2022-09-23T13:15:30.041Z,5.90
2022-09-23T13:18:58.113Z,5.90
2022-09-23T13:22:14.637Z,6.30
2022-09-23T13:25:18.519Z,5.80
2022-09-23T13:28:24.241Z,6.30
2022-09-23T13:31:16.105Z,5.90
2022-09-23T13:34:07.479Z,5.90
2022-09-23T13:36:58.236Z,7.10
2022-09-23T13:39:48.496Z,5.70
2022-09-23T13:42:40.049Z,5.90
2022-09-23T13:45:31.176Z,5.60
2022-09-23T13:48:23.209Z,5.70
2022-09-23T13:51:19.267Z,7.20
2022-09-23T13:57:26.304Z,6.40
2022-09-23T14:00:21.736Z,6.80
2022-09-23T14:03:26.135Z,5.20
2022-09-23T14:06:16.760Z,5.40
2022-09-23T14:09:07.188Z,7.40
2022-09-23T14:11:59.145Z,5.20
2022-09-23T14:14:51.081Z,6.80
2022-09-23T14:17:41.462Z,6.40
2022-09-23T14:20:33.717Z,5.70
2022-09-23T14:23:24.170Z,5.60
2022-09-23T14:26:14.488Z,7.00
2022-09-23T14:29:05.530Z,6.50
2022-09-23T14:32:00.117Z,5.90
2022-09-23T14:34:52.841Z,5.60
2022-09-23T14:38:02.167Z,6.60
2022-09-23T14:40:53.996Z,6.10
2022-09-23T14:43:52.007Z,6.50
2022-09-23T14:46:57.382Z,6.60
2022-09-23T14:50:09.521Z,6.30
2022-09-23T14:53:00.186Z,6.00
2022-09-23T14:55:52.194Z,6.80
2022-09-23T14:58:52.032Z,6.30
2022-09-23T15:01:43.112Z,6.50
2022-09-23T15:04:36.641Z,6.40
2022-09-23T15:07:26.924Z,7.90
2022-09-23T15:10:23.093Z,7.10
2022-09-23T15:16:05.868Z,6.70
2022-09-23T15:18:57.349Z,8.30
2022-09-23T15:21:50.281Z,7.10
2022-09-23T15:24:44.211Z,6.80
2022-09-23T15:27:34.860Z,6.90
2022-09-23T15:30:25.200Z,6.70
2022-09-23T15:33:15.950Z,7.80
2022-09-23T15:36:07.637Z,8.00
2022-09-23T15:38:59.394Z,7.60
2022-09-23T15:41:49.865Z,7.90
2022-09-23T15:44:40.429Z,7.80
2022-09-23T15:47:31.110Z,7.80
2022-09-23T15:50:21.672Z,8.60
2022-09-23T15:53:14.930Z,8.60
2022-09-23T15:56:06.180Z,8.00
2022-09-23T15:58:56.476Z,9.60
2022-09-23T16:01:47.278Z,8.20
2022-09-23T16:04:37.649Z,8.00
2022-09-23T16:07:28.217Z,9.10
2022-09-23T16:10:19.767Z,8.90
2022-09-23T16:13:14.470Z,8.40
2022-09-23T16:16:07.384Z,9.10
2022-09-23T16:18:57.910Z,8.40
2022-09-23T16:21:48.390Z,9.30
2022-09-23T16:24:38.739Z,8.50
2022-09-23T16:27:29.119Z,8.50
2022-09-23T16:30:19.779Z,8.30
2022-09-23T16:33:10.052Z,9.10
2022-09-23T16:36:00.672Z,8.90
2022-09-23T16:38:50.990Z,9.10
2022-09-23T16:41:42.932Z,8.60
2022-09-23T16:44:33.552Z,8.90
2022-09-23T16:47:23.951Z,9.90
2022-09-23T16:50:15.714Z,9.10
2022-09-23T16:53:06.045Z,9.80
2022-09-23T16:55:57.357Z,8.90
2022-09-23T16:58:49.173Z,8.80
2022-09-23T17:01:58.259Z,9.10
2022-09-23T17:04:48.724Z,9.00
2022-09-23T17:07:39.643Z,9.20
2022-09-23T17:10:29.991Z,9.70
2022-09-23T17:13:20.303Z,9.50
2022-09-23T17:16:11.436Z,9.20
2022-09-23T17:19:06.242Z,9.20
2022-09-23T17:21:56.619Z,9.40
2022-09-23T17:24:47.105Z,10.50
2022-09-23T17:27:37.525Z,10.00
2022-09-23T17:30:28.237Z,10.30
2022-09-23T17:33:20.154Z,10.40
2022-09-23T17:36:12.785Z,10.40
2022-09-23T17:39:05.542Z,10.90
2022-09-23T17:41:57.921Z,10.30
2022-09-23T17:44:48.497Z,10.70
2022-09-23T17:47:41.707Z,9.70
2022-09-23T17:50:32.471Z,10.50
2022-09-23T17:53:24.196Z,11.30
2022-09-23T17:56:16.860Z,10.60
2022-09-23T17:59:09.680Z,10.50
2022-09-23T18:02:00.408Z,10.50
2022-09-23T18:04:50.772Z,10.30
2022-09-23T18:07:42.184Z,10.60
2022-09-23T18:10:33.023Z,10.00
2022-09-23T18:13:23.618Z,10.50
2022-09-23T18:16:14.216Z,10.90
2022-09-23T18:19:06.108Z,10.80
2022-09-23T18:21:57.106Z,9.90
2022-09-23T18:24:47.485Z,10.80
2022-09-23T18:27:38.076Z,10.70
2022-09-23T18:30:32.460Z,10.80
2022-09-23T18:33:23.074Z,10.20
2022-09-23T18:36:13.690Z,10.30
2022-09-23T18:39:04.355Z,10.50
2022-09-23T18:41:55.003Z,10.90
2022-09-23T18:44:45.429Z,11.40
2022-09-23T18:47:54.168Z,11.20
2022-09-23T18:50:46.947Z,10.40
2022-09-23T18:53:38.912Z,10.90
2022-09-23T18:56:32.190Z,10.40
2022-09-23T18:59:27.406Z,10.70
2022-09-23T19:02:18.907Z,10.70
2022-09-23T19:05:10.549Z,12.80
2022-09-23T19:08:02.345Z,11.80
2022-09-23T19:10:57.173Z,12.60
2022-09-23T19:13:47.543Z,12.00
2022-09-23T19:16:38.651Z,12.50
2022-09-23T19:19:29.680Z,13.50
2022-09-23T19:22:20.238Z,13.10
2022-09-23T19:25:11.813Z,12.30
2022-09-23T19:28:04.984Z,14.90
2022-09-23T19:30:55.704Z,12.80
2022-09-23T19:33:55.906Z,14.40
2022-09-23T19:36:47.401Z,12.60
2022-09-23T19:39:40.100Z,13.20
2022-09-23T19:42:30.503Z,15.70
2022-09-23T19:45:22.088Z,15.30
2022-09-23T19:48:12.693Z,12.90
2022-09-23T19:51:03.179Z,14.90
2022-09-23T19:53:53.789Z,12.80
2022-09-23T19:56:44.403Z,14.00
2022-09-23T19:59:34.761Z,15.30
2022-09-23T20:02:25.508Z,16.00
2022-09-23T20:05:20.289Z,16.00
2022-09-23T20:08:10.976Z,15.00
2022-09-23T20:11:09.656Z,16.00
2022-09-23T20:14:02.615Z,16.90
2022-09-23T20:16:55.647Z,15.80
2022-09-23T20:19:46.934Z,17.10
2022-09-23T20:22:37.279Z,16.40
2022-09-23T20:25:51.294Z,15.40
2022-09-23T20:28:41.672Z,17.20
2022-09-23T20:31:33.616Z,18.90
2022-09-23T20:34:27.574Z,16.70
2022-09-23T20:37:19.451Z,19.80
2022-09-23T20:40:12.824Z,19.70
2022-09-23T20:43:04.078Z,18.30
2022-09-23T20:45:55.413Z,17.80
2022-09-23T20:48:47.831Z,19.80
2022-09-23T20:51:38.713Z,19.60
2022-09-23T20:54:30.408Z,20.30
2022-09-23T20:57:22.321Z,20.80
2022-09-23T21:00:17.690Z,18.50
2022-09-23T21:03:08.416Z,20.50
2022-09-23T21:06:01.777Z,19.30
2022-09-23T21:08:54.397Z,19.00
2022-09-23T21:11:44.817Z,19.60
2022-09-23T21:14:35.141Z,20.60
2022-09-23T21:17:26.326Z,19.60
2022-09-23T21:20:16.807Z,21.70
2022-09-23T21:23:07.539Z,20.70
2022-09-23T21:26:02.551Z,21.60
2022-09-23T21:28:54.159Z,20.90
2022-09-23T21:31:44.905Z,20.80
2022-09-23T21:34:35.347Z,22.20
2022-09-23T21:37:25.797Z,21.40
2022-09-23T21:40:35.370Z,20.30
2022-09-23T21:43:27.104Z,20.40
2022-09-23T21:46:19.912Z,19.60
2022-09-23T21:49:10.342Z,21.10
2022-09-23T21:52:00.972Z,20.30
2022-09-23T21:54:51.967Z,20.70
2022-09-23T21:57:43.640Z,20.40
2022-09-23T22:00:34.062Z,20.40
2022-09-23T22:03:24.643Z,21.10
2022-09-23T22:06:20.965Z,20.80
2022-09-23T22:09:15.195Z,20.40
2022-09-23T22:12:07.996Z,20.50
2022-09-23T22:14:58.467Z,20.10
2022-09-23T22:17:49.457Z,21.20
2022-09-23T22:20:40.749Z,20.90
2022-09-23T22:23:31.338Z,21.90
2022-09-23T22:26:21.678Z,19.90
2022-09-23T22:29:31.682Z,19.70
2022-09-23T22:32:52.842Z,19.90
2022-09-23T22:35:45.979Z,19.30
2022-09-23T22:38:36.328Z,19.80
2022-09-23T22:41:26.840Z,19.40
2022-09-23T22:44:17.601Z,20.50
2022-09-23T22:47:08.628Z,19.50
2022-09-23T22:49:59.221Z,20.10
2022-09-23T22:52:49.470Z,20.60
2022-09-23T22:55:41.414Z,19.80
2022-09-23T22:58:32.938Z,19.70
2022-09-23T23:01:23.521Z,20.10
2022-09-23T23:04:14.298Z,18.00
2022-09-23T23:07:06.380Z,19.60
2022-09-23T23:09:57.572Z,18.20
2022-09-23T23:12:48.709Z,18.80
2022-09-23T23:15:40.549Z,18.40
2022-09-23T23:18:34.440Z,18.50
2022-09-23T23:21:24.724Z,18.10
2022-09-23T23:24:18.132Z,17.40
2022-09-23T23:27:08.402Z,17.00
2022-09-23T23:29:58.725Z,18.00
2022-09-23T23:32:49.005Z,19.70
2022-09-23T23:35:39.298Z,19.10
2022-09-23T23:38:29.578Z,19.30
2022-09-23T23:41:21.976Z,18.00
2022-09-23T23:44:14.146Z,17.60
2022-09-23T23:47:04.738Z,17.50
2022-09-23T23:49:55.120Z,16.70
2022-09-23T23:52:45.425Z,17.60
2022-09-23T23:55:39.274Z,17.60
2022-09-23T23:58:29.850Z,18.10
